createdAt,value
2019-02-02T00:01:56.092Z,1.02
2019-02-02T00:05:03.443Z,1.02
2019-02-02T00:08:11.034Z,0.98
2019-02-02T00:11:17.919Z,1.00
2019-02-02T00:14:24.867Z,0.75
2019-02-02T00:17:33.891Z,0.66
2019-02-02T00:20:40.814Z,0.91
2019-02-02T00:23:47.694Z,0.74
2019-02-02T00:26:54.788Z,0.88
2019-02-02T00:30:01.806Z,0.90
2019-02-02T00:33:11.618Z,0.67
2019-02-02T00:36:19.718Z,0.83
2019-02-02T00:39:26.751Z,0.88
2019-02-02T00:42:35.285Z,0.97
2019-02-02T00:45:42.410Z,0.95
2019-02-02T00:48:49.286Z,0.66
2019-02-02T00:51:57.342Z,0.87
2019-02-02T00:55:05.989Z,0.87
2019-02-02T00:58:12.911Z,0.85
2019-02-02T01:01:19.817Z,0.48
2019-02-02T01:04:27.720Z,0.62
2019-02-02T01:07:34.779Z,0.77
2019-02-02T01:10:43.831Z,0.86
2019-02-02T01:13:51.506Z,0.70
2019-02-02T01:16:58.491Z,0.77
2019-02-02T01:20:10.975Z,0.62
2019-02-02T01:23:20.403Z,0.70
2019-02-02T01:26:27.885Z,0.60
2019-02-02T01:29:34.924Z,0.81
2019-02-02T01:32:41.805Z,0.87
2019-02-02T01:35:50.321Z,0.82
2019-02-02T01:38:57.222Z,0.56
2019-02-02T01:42:04.489Z,0.75
2019-02-02T01:45:16.071Z,0.78
2019-02-02T01:48:24.584Z,0.80
2019-02-02T01:51:33.100Z,0.82
2019-02-02T01:54:42.060Z,0.54
2019-02-02T01:57:50.532Z,0.76
2019-02-02T02:00:57.563Z,0.84
2019-02-02T02:04:04.948Z,0.88
2019-02-02T02:07:12.916Z,0.87
2019-02-02T02:10:20.288Z,0.90
2019-02-02T02:13:27.414Z,0.87
2019-02-02T02:16:34.389Z,0.85
2019-02-02T02:19:42.101Z,0.88
2019-02-02T02:22:50.082Z,0.66
2019-02-02T02:25:57.008Z,0.71
2019-02-02T02:29:04.210Z,0.65
2019-02-02T02:32:11.666Z,0.59
2019-02-02T02:35:19.403Z,0.62
2019-02-02T02:38:26.440Z,0.73
2019-02-02T02:41:33.508Z,0.47
2019-02-02T02:44:40.442Z,0.60
2019-02-02T02:47:49.795Z,0.59
2019-02-02T02:50:56.838Z,0.69
2019-02-02T02:54:03.798Z,0.76
2019-02-02T02:57:13.126Z,0.72
2019-02-02T03:00:25.793Z,0.66
2019-02-02T03:03:32.766Z,0.81
2019-02-02T03:06:43.731Z,0.82
2019-02-02T03:09:53.585Z,0.79
2019-02-02T03:13:00.723Z,0.36
2019-02-02T03:16:07.662Z,0.53
2019-02-02T03:19:14.681Z,0.78
2019-02-02T03:22:21.780Z,0.72
2019-02-02T03:25:28.869Z,0.77
2019-02-02T03:28:36.041Z,0.70
2019-02-02T03:31:42.980Z,0.41
2019-02-02T03:34:49.973Z,0.33
2019-02-02T03:37:56.923Z,0.49
2019-02-02T03:41:03.939Z,0.60
2019-02-02T03:44:10.831Z,0.54
2019-02-02T03:47:18.617Z,0.63
2019-02-02T03:50:25.497Z,0.66
2019-02-02T03:53:32.585Z,0.62
2019-02-02T03:56:39.802Z,0.71
2019-02-02T03:59:47.897Z,0.74
2019-02-02T04:02:54.850Z,0.78
2019-02-02T04:06:01.771Z,0.85
2019-02-02T04:09:09.698Z,0.76
2019-02-02T04:12:16.660Z,0.72
2019-02-02T04:15:24.410Z,0.84
2019-02-02T04:18:31.411Z,0.75
2019-02-02T04:21:38.312Z,0.73
2019-02-02T04:24:45.236Z,0.75
2019-02-02T04:27:54.759Z,0.80
2019-02-02T04:31:01.680Z,0.73
2019-02-02T04:34:08.717Z,0.75
2019-02-02T04:37:15.900Z,0.81
2019-02-02T04:40:22.777Z,0.79
2019-02-02T04:43:30.069Z,0.81
2019-02-02T04:46:39.703Z,0.70
2019-02-02T04:49:46.637Z,0.63
2019-02-02T04:52:53.514Z,0.70
2019-02-02T04:56:01.965Z,0.73
2019-02-02T04:59:08.884Z,0.76
2019-02-02T05:02:17.488Z,0.81
2019-02-02T05:05:24.613Z,0.57
2019-02-02T05:08:31.985Z,0.65
2019-02-02T05:11:38.939Z,0.67
2019-02-02T05:14:46.155Z,0.70
2019-02-02T05:17:53.061Z,0.79
2019-02-02T05:21:00.083Z,0.71
2019-02-02T05:24:06.990Z,0.74
2019-02-02T05:27:14.184Z,0.75
2019-02-02T05:30:28.078Z,0.71
2019-02-02T05:33:35.340Z,0.49
2019-02-02T05:36:42.244Z,0.57
2019-02-02T05:39:50.129Z,0.61
2019-02-02T05:42:57.013Z,0.66
2019-02-02T05:46:03.947Z,0.68
2019-02-02T05:49:10.943Z,0.61
2019-02-02T05:52:17.960Z,0.70
2019-02-02T05:55:24.875Z,0.54
2019-02-02T05:58:32.226Z,0.64
2019-02-02T06:01:39.207Z,0.67
2019-02-02T06:04:47.506Z,0.60
2019-02-02T06:07:54.402Z,0.70
2019-02-02T06:11:02.648Z,0.53
2019-02-02T06:14:09.723Z,0.66
2019-02-02T06:17:18.136Z,0.62
2019-02-02T06:20:25.136Z,0.69
2019-02-02T06:23:35.406Z,0.73
2019-02-02T06:26:42.403Z,0.53
2019-02-02T06:29:49.346Z,0.66
2019-02-02T06:32:56.235Z,0.71
2019-02-02T06:36:03.611Z,0.69
2019-02-02T06:39:10.784Z,0.70
2019-02-02T06:42:17.744Z,0.61
2019-02-02T06:45:34.357Z,0.66
2019-02-02T06:48:41.485Z,0.66
2019-02-02T06:51:48.469Z,0.54
2019-02-02T06:54:55.409Z,0.62
2019-02-02T06:58:02.312Z,0.69
2019-02-02T07:01:09.221Z,0.71
2019-02-02T07:04:16.470Z,0.76
2019-02-02T07:07:24.660Z,0.72
2019-02-02T07:10:31.653Z,0.53
2019-02-02T07:13:38.691Z,0.64
2019-02-02T07:16:45.624Z,0.70
2019-02-02T07:19:52.571Z,0.48
2019-02-02T07:22:59.555Z,0.52
2019-02-02T07:26:06.484Z,0.63
2019-02-02T07:29:13.615Z,0.48
2019-02-02T07:32:20.536Z,0.56
2019-02-02T07:35:27.522Z,0.50
2019-02-02T07:38:34.534Z,0.72
2019-02-02T07:41:41.715Z,0.81
2019-02-02T07:44:48.717Z,0.73
2019-02-02T07:47:56.089Z,0.74
2019-02-02T07:51:04.670Z,0.72
2019-02-02T07:54:13.074Z,0.96
2019-02-02T07:57:23.093Z,0.83
2019-02-02T08:00:40.816Z,0.73
2019-02-02T08:03:41.697Z,0.81
2019-02-02T08:06:48.598Z,0.78
2019-02-02T08:09:56.027Z,0.79
2019-02-02T08:13:03.094Z,0.79
2019-02-02T08:16:12.179Z,0.78
2019-02-02T08:19:19.402Z,0.78
2019-02-02T08:22:26.338Z,0.81
2019-02-02T08:25:35.827Z,0.92
2019-02-02T08:28:44.223Z,0.87
2019-02-02T08:31:52.874Z,0.85
2019-02-02T08:35:01.626Z,0.94
2019-02-02T08:38:10.365Z,0.88
2019-02-02T08:41:20.140Z,1.17
2019-02-02T08:44:29.578Z,0.88
2019-02-02T08:47:36.851Z,1.26
2019-02-02T08:50:43.734Z,1.06
2019-02-02T08:53:50.670Z,0.86
2019-02-02T08:56:57.722Z,1.04
2019-02-02T09:00:05.674Z,0.97
2019-02-02T09:03:12.599Z,1.21
2019-02-02T09:06:20.368Z,1.17
2019-02-02T09:09:27.273Z,1.08
2019-02-02T09:12:40.157Z,1.14
2019-02-02T09:15:50.311Z,1.13
2019-02-02T09:18:58.683Z,1.00
2019-02-02T09:22:08.796Z,0.95
2019-02-02T09:25:17.326Z,1.24
2019-02-02T09:28:24.207Z,1.24
2019-02-02T09:31:35.336Z,1.31
2019-02-02T09:34:59.371Z,1.15
2019-02-02T09:38:11.950Z,1.20
2019-02-02T09:41:19.301Z,1.30
2019-02-02T09:44:26.213Z,1.32
2019-02-02T09:47:33.195Z,1.47
2019-02-02T09:50:40.244Z,1.30
2019-02-02T09:53:47.146Z,1.22
2019-02-02T09:56:54.187Z,1.55
2019-02-02T10:00:01.572Z,1.41
2019-02-02T10:03:15.848Z,1.44
2019-02-02T10:06:24.422Z,1.30
2019-02-02T10:09:34.487Z,1.45
2019-02-02T10:12:41.743Z,1.32
2019-02-02T10:15:48.682Z,1.31
2019-02-02T10:19:02.363Z,1.35
2019-02-02T10:22:13.728Z,1.53
2019-02-02T10:25:23.870Z,1.45
2019-02-02T10:28:31.122Z,1.40
2019-02-02T10:31:42.107Z,1.60
2019-02-02T10:34:49.605Z,1.62
2019-02-02T10:37:56.872Z,1.56
2019-02-02T10:41:05.196Z,1.73
2019-02-02T10:44:12.193Z,1.57
2019-02-02T10:47:19.308Z,1.68
2019-02-02T10:50:26.331Z,1.74
2019-02-02T10:53:33.272Z,1.78
2019-02-02T10:56:42.470Z,1.69
2019-02-02T10:59:51.384Z,1.73
2019-02-02T11:02:58.564Z,1.72
2019-02-02T11:06:05.938Z,1.70
2019-02-02T11:09:13.119Z,1.70
2019-02-02T11:12:20.107Z,1.50
2019-02-02T11:15:27.891Z,1.63
2019-02-02T11:18:35.023Z,1.75
2019-02-02T11:21:41.978Z,1.87
2019-02-02T11:24:49.525Z,1.50
2019-02-02T11:27:56.794Z,1.76
2019-02-02T11:31:03.854Z,1.81
2019-02-02T11:34:10.893Z,1.79
2019-02-02T11:37:17.917Z,1.87
2019-02-02T11:40:28.369Z,1.89
2019-02-02T11:43:37.662Z,1.89
2019-02-02T11:46:44.845Z,1.90
2019-02-02T11:49:52.873Z,1.96
2019-02-02T11:52:59.975Z,1.88
2019-02-02T11:56:07.132Z,1.96
2019-02-02T11:59:15.289Z,1.92
2019-02-02T12:02:23.752Z,1.75
2019-02-02T12:05:30.953Z,1.73
2019-02-02T12:08:39.540Z,1.93
2019-02-02T12:11:46.498Z,1.86
2019-02-02T12:14:53.530Z,1.89
2019-02-02T12:18:02.591Z,1.92
2019-02-02T12:21:09.584Z,1.93
2019-02-02T12:24:17.672Z,1.91
2019-02-02T12:27:24.650Z,1.81
2019-02-02T12:30:36.485Z,1.87
2019-02-02T12:33:46.120Z,1.98
2019-02-02T12:36:53.144Z,1.97
2019-02-02T12:40:00.229Z,1.92
2019-02-02T12:43:07.283Z,1.87
2019-02-02T12:46:14.253Z,1.94
2019-02-02T12:49:21.945Z,1.88
2019-02-02T12:52:29.060Z,2.03
2019-02-02T12:55:36.048Z,2.01
2019-02-02T12:58:43.402Z,2.07
2019-02-02T13:01:50.339Z,2.06
2019-02-02T13:04:57.531Z,2.10
2019-02-02T13:08:05.308Z,2.16
2019-02-02T13:11:13.016Z,2.21
2019-02-02T13:14:20.379Z,2.20
2019-02-02T13:17:28.940Z,2.23
2019-02-02T13:20:36.455Z,2.19
2019-02-02T13:23:43.562Z,2.18
2019-02-02T13:26:50.608Z,2.09
2019-02-02T13:29:57.648Z,2.04
2019-02-02T13:33:05.114Z,2.03
2019-02-02T13:36:12.147Z,2.13
2019-02-02T13:39:19.445Z,2.21
2019-02-02T13:42:26.755Z,2.21
2019-02-02T13:45:33.748Z,2.17
2019-02-02T13:48:40.947Z,2.19
2019-02-02T13:51:47.978Z,2.13
2019-02-02T13:54:55.006Z,2.13
2019-02-02T13:58:02.036Z,2.13
2019-02-02T14:01:09.217Z,2.16
2019-02-02T14:04:16.322Z,2.07
2019-02-02T14:07:23.540Z,2.09
2019-02-02T14:10:32.828Z,2.07
2019-02-02T14:13:39.932Z,2.30
2019-02-02T14:16:47.931Z,2.29
2019-02-02T14:19:55.032Z,2.40
2019-02-02T14:23:02.402Z,2.37
2019-02-02T14:26:09.507Z,2.32
2019-02-02T14:29:16.605Z,2.32
2019-02-02T14:32:26.060Z,2.30
2019-02-02T14:35:32.991Z,2.43
2019-02-02T14:38:40.171Z,2.28
2019-02-02T14:41:49.084Z,2.35
2019-02-02T14:44:56.173Z,2.28
2019-02-02T14:48:03.196Z,2.29
2019-02-02T14:51:11.562Z,2.26
2019-02-02T14:54:18.690Z,2.29
2019-02-02T14:57:27.063Z,2.28
2019-02-02T15:00:34.193Z,2.29
2019-02-02T15:03:41.372Z,2.28
2019-02-02T15:06:48.478Z,2.24
2019-02-02T15:09:56.520Z,2.16
2019-02-02T15:13:03.672Z,2.15
2019-02-02T15:16:11.827Z,2.13
2019-02-02T15:19:18.788Z,2.10
2019-02-02T15:22:33.059Z,2.13
2019-02-02T15:25:41.006Z,2.15
2019-02-02T15:28:47.955Z,2.20
2019-02-02T15:31:54.930Z,2.20
2019-02-02T15:35:05.910Z,2.21
2019-02-02T15:38:14.097Z,2.20
2019-02-02T15:41:24.922Z,2.19
2019-02-02T15:44:32.527Z,2.19
2019-02-02T15:47:39.586Z,2.18
2019-02-02T15:50:46.530Z,2.19
2019-02-02T15:53:53.566Z,2.16
2019-02-02T15:57:00.546Z,2.14
2019-02-02T16:00:15.470Z,2.16
2019-02-02T16:03:24.470Z,2.14
2019-02-02T16:06:31.777Z,2.13
2019-02-02T16:09:38.679Z,2.10
2019-02-02T16:12:47.394Z,2.18
2019-02-02T16:15:54.450Z,2.05
2019-02-02T16:19:01.505Z,2.06
2019-02-02T16:22:08.464Z,2.07
2019-02-02T16:25:15.863Z,2.01
2019-02-02T16:28:24.133Z,2.00
2019-02-02T16:31:33.684Z,2.02
2019-02-02T16:34:40.641Z,2.03
2019-02-02T16:37:47.697Z,1.97
2019-02-02T16:40:54.704Z,1.98
2019-02-02T16:44:01.705Z,2.10
2019-02-02T16:47:08.663Z,2.09
2019-02-02T16:50:19.364Z,2.05
2019-02-02T16:53:34.713Z,2.06
2019-02-02T16:56:41.722Z,2.06
2019-02-02T16:59:48.679Z,2.49
2019-02-02T17:02:55.933Z,2.74
2019-02-02T17:06:03.069Z,2.99
2019-02-02T17:09:13.736Z,3.12
2019-02-02T17:12:19.501Z,3.01
2019-02-02T17:15:26.595Z,3.00
2019-02-02T17:18:36.595Z,3.55
2019-02-02T17:21:43.659Z,3.36
2019-02-02T17:24:50.912Z,3.37
2019-02-02T17:27:58.103Z,3.24
2019-02-02T17:31:07.226Z,3.46
2019-02-02T17:34:14.428Z,3.33
2019-02-02T17:37:21.421Z,3.28
2019-02-02T17:40:29.440Z,3.59
2019-02-02T17:43:36.523Z,3.34
2019-02-02T17:46:43.590Z,3.05
2019-02-02T17:49:50.698Z,3.20
2019-02-02T17:52:57.963Z,3.42
2019-02-02T17:56:05.066Z,3.31
2019-02-02T17:59:14.002Z,3.13
2019-02-02T18:02:21.088Z,3.19
2019-02-02T18:05:28.276Z,3.11
2019-02-02T18:08:35.285Z,2.99
2019-02-02T18:11:46.303Z,3.01
2019-02-02T18:14:55.723Z,3.20
2019-02-02T18:18:03.629Z,2.67
2019-02-02T18:21:11.802Z,2.69
2019-02-02T18:24:18.847Z,2.91
2019-02-02T18:27:27.027Z,2.77
2019-02-02T18:30:34.147Z,2.91
2019-02-02T18:33:41.802Z,3.06
2019-02-02T18:36:51.731Z,2.77
2019-02-02T18:39:58.967Z,2.79
2019-02-02T18:43:08.156Z,2.79
2019-02-02T18:46:15.587Z,2.68
2019-02-02T18:49:22.636Z,2.90
2019-02-02T18:52:29.832Z,2.83
2019-02-02T18:55:47.127Z,2.87
2019-02-02T18:58:54.070Z,2.68
2019-02-02T19:02:01.131Z,2.94
2019-02-02T19:05:08.933Z,2.99
2019-02-02T19:08:35.155Z,2.87
2019-02-02T19:11:45.149Z,2.96
2019-02-02T19:14:52.299Z,2.77
2019-02-02T19:17:59.269Z,2.52
2019-02-02T19:21:06.414Z,2.28
2019-02-02T19:24:13.423Z,1.97
2019-02-02T19:27:20.564Z,1.46
2019-02-02T19:30:30.458Z,1.85
2019-02-02T19:33:38.527Z,2.52
2019-02-02T19:36:46.907Z,2.05
2019-02-02T19:39:53.910Z,2.21
2019-02-02T19:43:01.005Z,2.04
2019-02-02T19:46:08.000Z,2.42
2019-02-02T19:49:14.943Z,2.40
2019-02-02T19:52:22.913Z,2.27
2019-02-02T19:55:29.984Z,2.41
2019-02-02T19:58:37.197Z,2.54
2019-02-02T20:01:44.189Z,2.45
2019-02-02T20:04:52.336Z,2.29
2019-02-02T20:08:00.568Z,2.11
2019-02-02T20:11:08.963Z,2.35
2019-02-02T20:14:17.367Z,2.50
2019-02-02T20:17:25.844Z,2.36
2019-02-02T20:20:34.382Z,2.44
2019-02-02T20:23:42.529Z,2.40
2019-02-02T20:26:52.909Z,2.40
2019-02-02T20:30:00.813Z,2.33
2019-02-02T20:33:08.783Z,2.24
2019-02-02T20:36:16.712Z,2.40
2019-02-02T20:39:25.089Z,2.31
2019-02-02T20:42:35.801Z,2.35
2019-02-02T20:45:43.996Z,2.24
2019-02-02T20:48:53.809Z,2.35
2019-02-02T20:52:01.704Z,2.44
2019-02-02T20:55:12.476Z,2.16
2019-02-02T20:58:19.407Z,2.27
2019-02-02T21:01:26.459Z,2.14
2019-02-02T21:04:33.491Z,2.14
2019-02-02T21:07:40.612Z,2.26
2019-02-02T21:10:47.507Z,2.21
2019-02-02T21:13:58.451Z,2.17
2019-02-02T21:17:05.410Z,2.19
2019-02-02T21:20:21.800Z,2.01
2019-02-02T21:23:29.114Z,2.04
2019-02-02T21:26:36.126Z,2.13
2019-02-02T21:29:45.125Z,2.15
2019-02-02T21:32:52.167Z,2.10
2019-02-02T21:36:03.975Z,2.14
2019-02-02T21:39:10.027Z,2.16
2019-02-02T21:42:19.971Z,2.05
2019-02-02T21:45:26.942Z,2.13
2019-02-02T21:48:37.368Z,2.13
2019-02-02T21:51:44.417Z,1.78
2019-02-02T21:54:51.502Z,1.68
2019-02-02T21:57:58.626Z,1.82
2019-02-02T22:01:07.141Z,1.94
2019-02-02T22:04:14.208Z,2.04
2019-02-02T22:07:21.113Z,1.92
2019-02-02T22:10:28.244Z,2.07
2019-02-02T22:13:35.685Z,2.04
2019-02-02T22:16:42.713Z,2.03
2019-02-02T22:19:51.431Z,1.99
2019-02-02T22:22:58.894Z,1.73
2019-02-02T22:26:06.150Z,1.84
2019-02-02T22:29:13.209Z,1.83
2019-02-02T22:32:21.118Z,1.85
2019-02-02T22:35:28.221Z,1.97
2019-02-02T22:38:35.686Z,1.98
2019-02-02T22:41:42.698Z,1.87
2019-02-02T22:44:50.890Z,1.92
2019-02-02T22:48:00.989Z,1.77
2019-02-02T22:51:08.411Z,1.75
2019-02-02T22:54:16.154Z,1.53
2019-02-02T22:57:23.213Z,1.59
2019-02-02T23:01:05.993Z,1.58
2019-02-02T23:04:42.430Z,1.55
2019-02-02T23:08:51.434Z,1.43
2019-02-02T23:12:39.106Z,1.14
2019-02-02T23:16:32.317Z,1.19
2019-02-02T23:19:39.359Z,1.18
2019-02-02T23:22:46.379Z,1.18
2019-02-02T23:25:54.472Z,0.99
2019-02-02T23:29:01.482Z,0.98
2019-02-02T23:32:09.571Z,1.04
2019-02-02T23:35:16.583Z,0.94
2019-02-02T23:38:23.543Z,1.02
2019-02-02T23:41:30.646Z,1.00
2019-02-02T23:44:37.576Z,1.06
2019-02-02T23:47:44.823Z,1.08
2019-02-02T23:50:51.917Z,1.13
2019-02-02T23:53:59.061Z,1.05
2019-02-02T23:57:06.360Z,1.00
